LCY weather

London City Airport
London, England, United Kingdom

Public forecast

Using degrees Celsius for public forecast. Weather courtesy of forecast.io.

METAR (pilot weather report)

Retrieved 2019/04/20 11:20 UTC (1 hour ago):

EGLC 201120Z AUTO 07004KT 320V120 9999 NCD 21/08 Q1030

TAF (pilot weather forecast)

Forecast is more than 12 hours old.

Retrieved 2018/10/15 21:30 UTC (6 months ago):

TAF EGLC 152119Z 1521/1621 CNL